sensor_id;sensor_type;location;lat;lon;timestamp;temperature;humidity
59148;DHT22;44930;52.878;6.168;2023-07-29T00:01:22;18.20;99.90
59148;DHT22;44930;52.878;6.168;2023-07-29T00:03:48;18.10;99.90
59148;DHT22;44930;52.878;6.168;2023-07-29T00:06:13;18.40;99.90
59148;DHT22;44930;52.878;6.168;2023-07-29T00:08:39;18.00;99.90
59148;DHT22;44930;52.878;6.168;2023-07-29T00:11:05;18.10;99.90
59148;DHT22;44930;52.878;6.168;2023-07-29T00:13:30;18.30;99.90
59148;DHT22;44930;52.878;6.168;2023-07-29T00:15:56;18.20;99.90
59148;DHT22;44930;52.878;6.168;2023-07-29T00:18:22;18.30;99.90
59148;DHT22;44930;52.878;6.168;2023-07-29T00:20:48;17.90;99.90
59148;DHT22;44930;52.878;6.168;2023-07-29T00:23:14;18.10;99.90
59148;DHT22;44930;52.878;6.168;2023-07-29T00:25:40;18.10;99.90
59148;DHT22;44930;52.878;6.168;2023-07-29T00:28:05;18.10;99.90
59148;DHT22;44930;52.878;6.168;2023-07-29T00:30:31;18.30;99.90
59148;DHT22;44930;52.878;6.168;2023-07-29T00:32:57;18.30;99.90
59148;DHT22;44930;52.878;6.168;2023-07-29T00:35:22;18.30;99.90
59148;DHT22;44930;52.878;6.168;2023-07-29T00:37:48;18.00;99.90
59148;DHT22;44930;52.878;6.168;2023-07-29T00:40:20;18.00;99.90
59148;DHT22;44930;52.878;6.168;2023-07-29T00:42:46;18.00;99.90
59148;DHT22;44930;52.878;6.168;2023-07-29T00:45:12;18.20;99.90
59148;DHT22;44930;52.878;6.168;2023-07-29T00:47:38;18.40;99.90
59148;DHT22;44930;52.878;6.168;2023-07-29T00:50:04;18.00;99.90
59148;DHT22;44930;52.878;6.168;2023-07-29T00:52:30;18.20;99.90
59148;DHT22;44930;52.878;6.168;2023-07-29T00:54:55;17.70;99.90
59148;DHT22;44930;52.878;6.168;2023-07-29T00:57:21;18.20;99.90
59148;DHT22;44930;52.878;6.168;2023-07-29T00:59:47;18.10;99.90
59148;DHT22;44930;52.878;6.168;2023-07-29T01:02:13;17.90;99.90
59148;DHT22;44930;52.878;6.168;2023-07-29T01:04:39;17.60;99.90
59148;DHT22;44930;52.878;6.168;2023-07-29T01:10:02;17.80;99.90
59148;DHT22;44930;52.878;6.168;2023-07-29T01:12:52;17.50;99.90
59148;DHT22;44930;52.878;6.168;2023-07-29T01:18:02;17.60;99.90
59148;DHT22;44930;52.878;6.168;2023-07-29T01:20:35;17.80;99.90
59148;DHT22;44930;52.878;6.168;2023-07-29T01:23:02;17.40;99.90
59148;DHT22;44930;52.878;6.168;2023-07-29T01:25:28;18.10;99.90
59148;DHT22;44930;52.878;6.168;2023-07-29T01:27:53;17.40;99.90
59148;DHT22;44930;52.878;6.168;2023-07-29T01:30:22;17.80;99.90
59148;DHT22;44930;52.878;6.168;2023-07-29T01:32:59;17.50;99.90
59148;DHT22;44930;52.878;6.168;2023-07-29T01:35:35;17.90;99.90
59148;DHT22;44930;52.878;6.168;2023-07-29T01:38:19;17.80;99.90
59148;DHT22;44930;52.878;6.168;2023-07-29T01:40:48;17.90;99.90
59148;DHT22;44930;52.878;6.168;2023-07-29T01:43:14;17.80;99.90
59148;DHT22;44930;52.878;6.168;2023-07-29T01:45:40;17.70;99.90
59148;DHT22;44930;52.878;6.168;2023-07-29T01:48:06;17.60;99.90
59148;DHT22;44930;52.878;6.168;2023-07-29T01:50:32;17.60;99.90
59148;DHT22;44930;52.878;6.168;2023-07-29T01:52:58;18.00;99.90
59148;DHT22;44930;52.878;6.168;2023-07-29T01:55:24;17.20;99.90
59148;DHT22;44930;52.878;6.168;2023-07-29T01:57:50;18.10;99.90
59148;DHT22;44930;52.878;6.168;2023-07-29T02:00:16;17.60;99.90
59148;DHT22;44930;52.878;6.168;2023-07-29T02:02:43;17.60;99.90
59148;DHT22;44930;52.878;6.168;2023-07-29T02:05:08;17.60;99.90
59148;DHT22;44930;52.878;6.168;2023-07-29T02:07:34;17.40;99.90
59148;DHT22;44930;52.878;6.168;2023-07-29T02:09:59;17.50;99.90
59148;DHT22;44930;52.878;6.168;2023-07-29T02:12:25;17.50;99.90
59148;DHT22;44930;52.878;6.168;2023-07-29T02:14:50;17.50;99.90
59148;DHT22;44930;52.878;6.168;2023-07-29T02:17:17;17.30;99.90
59148;DHT22;44930;52.878;6.168;2023-07-29T02:19:42;17.40;99.90
59148;DHT22;44930;52.878;6.168;2023-07-29T02:22:08;17.50;99.90
59148;DHT22;44930;52.878;6.168;2023-07-29T02:24:33;17.60;99.90
59148;DHT22;44930;52.878;6.168;2023-07-29T02:26:59;17.10;99.90
59148;DHT22;44930;52.878;6.168;2023-07-29T02:29:25;17.80;99.90
59148;DHT22;44930;52.878;6.168;2023-07-29T02:31:51;17.80;99.90
59148;DHT22;44930;52.878;6.168;2023-07-29T02:34:16;17.40;99.90
59148;DHT22;44930;52.878;6.168;2023-07-29T02:36:42;17.40;99.90
59148;DHT22;44930;52.878;6.168;2023-07-29T02:39:07;17.30;99.90
59148;DHT22;44930;52.878;6.168;2023-07-29T02:41:33;17.70;99.90
59148;DHT22;44930;52.878;6.168;2023-07-29T02:43:59;17.50;99.90
59148;DHT22;44930;52.878;6.168;2023-07-29T02:46:24;17.50;99.90
59148;DHT22;44930;52.878;6.168;2023-07-29T02:48:50;17.30;99.90
59148;DHT22;44930;52.878;6.168;2023-07-29T02:51:16;18.10;99.90
59148;DHT22;44930;52.878;6.168;2023-07-29T02:53:41;17.70;99.90
59148;DHT22;44930;52.878;6.168;2023-07-29T02:56:07;17.20;99.90
59148;DHT22;44930;52.878;6.168;2023-07-29T02:58:34;17.40;99.90
59148;DHT22;44930;52.878;6.168;2023-07-29T03:01:01;17.70;99.90
59148;DHT22;44930;52.878;6.168;2023-07-29T03:03:28;17.40;99.90
59148;DHT22;44930;52.878;6.168;2023-07-29T03:06:00;17.30;99.90
59148;DHT22;44930;52.878;6.168;2023-07-29T03:08:26;17.10;99.90
59148;DHT22;44930;52.878;6.168;2023-07-29T03:10:52;17.20;99.90
59148;DHT22;44930;52.878;6.168;2023-07-29T03:13:17;17.30;99.90
59148;DHT22;44930;52.878;6.168;2023-07-29T03:15:43;17.50;99.90
59148;DHT22;44930;52.878;6.168;2023-07-29T03:18:08;17.30;99.90
59148;DHT22;44930;52.878;6.168;2023-07-29T03:20:34;17.30;99.90
59148;DHT22;44930;52.878;6.168;2023-07-29T03:22:59;17.80;99.90
59148;DHT22;44930;52.878;6.168;2023-07-29T03:25:25;17.30;99.90
59148;DHT22;44930;52.878;6.168;2023-07-29T03:27:50;17.10;99.90
59148;DHT22;44930;52.878;6.168;2023-07-29T03:30:19;17.20;99.90
59148;DHT22;44930;52.878;6.168;2023-07-29T03:32:46;16.90;99.90
59148;DHT22;44930;52.878;6.168;2023-07-29T03:35:11;16.90;99.90
59148;DHT22;44930;52.878;6.168;2023-07-29T03:37:37;18.30;99.90
59148;DHT22;44930;52.878;6.168;2023-07-29T03:40:03;17.00;99.90
59148;DHT22;44930;52.878;6.168;2023-07-29T03:42:29;17.30;99.90
59148;DHT22;44930;52.878;6.168;2023-07-29T03:44:55;17.00;99.90
59148;DHT22;44930;52.878;6.168;2023-07-29T03:47:20;16.80;99.90
59148;DHT22;44930;52.878;6.168;2023-07-29T03:49:46;17.00;99.90
59148;DHT22;44930;52.878;6.168;2023-07-29T03:52:11;17.00;99.90
59148;DHT22;44930;52.878;6.168;2023-07-29T03:54:37;17.30;99.90
59148;DHT22;44930;52.878;6.168;2023-07-29T03:57:03;16.90;99.90
59148;DHT22;44930;52.878;6.168;2023-07-29T03:59:28;16.80;99.90
59148;DHT22;44930;52.878;6.168;2023-07-29T04:01:54;16.80;99.90
59148;DHT22;44930;52.878;6.168;2023-07-29T04:04:20;17.00;99.90
59148;DHT22;44930;52.878;6.168;2023-07-29T04:06:46;16.70;99.90
59148;DHT22;44930;52.878;6.168;2023-07-29T04:09:11;17.20;99.90
59148;DHT22;44930;52.878;6.168;2023-07-29T04:11:37;16.70;99.90
59148;DHT22;44930;52.878;6.168;2023-07-29T04:14:02;16.80;99.90
59148;DHT22;44930;52.878;6.168;2023-07-29T04:16:28;16.80;99.90
59148;DHT22;44930;52.878;6.168;2023-07-29T04:18:54;16.70;99.90
59148;DHT22;44930;52.878;6.168;2023-07-29T04:21:19;16.50;99.90
59148;DHT22;44930;52.878;6.168;2023-07-29T04:23:45;16.50;99.90
59148;DHT22;44930;52.878;6.168;2023-07-29T04:26:10;17.10;99.90
59148;DHT22;44930;52.878;6.168;2023-07-29T04:28:36;17.00;99.90
59148;DHT22;44930;52.878;6.168;2023-07-29T04:31:02;16.80;99.90
59148;DHT22;44930;52.878;6.168;2023-07-29T04:33:29;16.80;99.90
59148;DHT22;44930;52.878;6.168;2023-07-29T04:35:55;17.00;99.90
59148;DHT22;44930;52.878;6.168;2023-07-29T04:38:21;16.70;99.90
59148;DHT22;44930;52.878;6.168;2023-07-29T04:40:49;16.80;99.90
59148;DHT22;44930;52.878;6.168;2023-07-29T04:43:14;17.10;99.90
59148;DHT22;44930;52.878;6.168;2023-07-29T04:45:43;16.90;99.90
59148;DHT22;44930;52.878;6.168;2023-07-29T04:48:09;16.90;99.90
59148;DHT22;44930;52.878;6.168;2023-07-29T04:50:34;17.20;99.90
59148;DHT22;44930;52.878;6.168;2023-07-29T04:53:00;16.90;99.90
59148;DHT22;44930;52.878;6.168;2023-07-29T04:55:25;16.80;99.90
59148;DHT22;44930;52.878;6.168;2023-07-29T04:57:51;17.00;99.90
59148;DHT22;44930;52.878;6.168;2023-07-29T05:00:17;17.10;99.90
59148;DHT22;44930;52.878;6.168;2023-07-29T05:02:43;17.20;99.90
59148;DHT22;44930;52.878;6.168;2023-07-29T05:05:08;16.90;99.90
59148;DHT22;44930;52.878;6.168;2023-07-29T05:07:34;17.00;99.90
59148;DHT22;44930;52.878;6.168;2023-07-29T05:09:59;16.70;99.90
59148;DHT22;44930;52.878;6.168;2023-07-29T05:12:25;16.90;99.90
59148;DHT22;44930;52.878;6.168;2023-07-29T05:14:50;17.10;99.90
59148;DHT22;44930;52.878;6.168;2023-07-29T05:17:16;16.80;99.90
59148;DHT22;44930;52.878;6.168;2023-07-29T05:19:42;16.80;99.90
59148;DHT22;44930;52.878;6.168;2023-07-29T05:22:07;16.90;99.90
59148;DHT22;44930;52.878;6.168;2023-07-29T05:24:33;17.00;99.90
59148;DHT22;44930;52.878;6.168;2023-07-29T05:26:58;17.30;99.90
59148;DHT22;44930;52.878;6.168;2023-07-29T05:29:24;17.10;99.90
59148;DHT22;44930;52.878;6.168;2023-07-29T05:31:50;17.10;99.90
59148;DHT22;44930;52.878;6.168;2023-07-29T05:34:15;17.50;99.90
59148;DHT22;44930;52.878;6.168;2023-07-29T05:36:41;16.80;99.90
59148;DHT22;44930;52.878;6.168;2023-07-29T05:39:06;17.50;99.90
59148;DHT22;44930;52.878;6.168;2023-07-29T05:43:58;17.00;99.90
59148;DHT22;44930;52.878;6.168;2023-07-29T05:46:24;17.10;99.90
59148;DHT22;44930;52.878;6.168;2023-07-29T05:48:49;17.10;99.90
59148;DHT22;44930;52.878;6.168;2023-07-29T05:51:15;17.20;99.90
59148;DHT22;44930;52.878;6.168;2023-07-29T05:53:41;17.20;99.90
59148;DHT22;44930;52.878;6.168;2023-07-29T05:56:06;17.20;99.90
59148;DHT22;44930;52.878;6.168;2023-07-29T05:58:32;17.00;99.90
59148;DHT22;44930;52.878;6.168;2023-07-29T06:00:58;17.20;99.90
59148;DHT22;44930;52.878;6.168;2023-07-29T06:03:23;17.20;99.90
59148;DHT22;44930;52.878;6.168;2023-07-29T06:05:49;17.10;99.90
59148;DHT22;44930;52.878;6.168;2023-07-29T06:08:15;17.40;99.90
59148;DHT22;44930;52.878;6.168;2023-07-29T06:10:40;17.40;99.90
59148;DHT22;44930;52.878;6.168;2023-07-29T06:13:06;17.50;99.90
59148;DHT22;44930;52.878;6.168;2023-07-29T06:15:32;17.40;99.90
59148;DHT22;44930;52.878;6.168;2023-07-29T06:17:57;17.50;99.90
59148;DHT22;44930;52.878;6.168;2023-07-29T06:20:23;17.80;99.90
59148;DHT22;44930;52.878;6.168;2023-07-29T06:22:49;17.60;99.90
59148;DHT22;44930;52.878;6.168;2023-07-29T06:25:14;17.70;99.90
59148;DHT22;44930;52.878;6.168;2023-07-29T06:27:40;17.70;99.90
59148;DHT22;44930;52.878;6.168;2023-07-29T06:30:05;17.50;99.90
59148;DHT22;44930;52.878;6.168;2023-07-29T06:32:31;17.70;99.90
59148;DHT22;44930;52.878;6.168;2023-07-29T06:34:57;17.90;99.90
59148;DHT22;44930;52.878;6.168;2023-07-29T06:37:23;18.00;99.90
59148;DHT22;44930;52.878;6.168;2023-07-29T06:39:48;18.00;99.90
59148;DHT22;44930;52.878;6.168;2023-07-29T06:42:14;17.70;99.90
59148;DHT22;44930;52.878;6.168;2023-07-29T06:44:40;18.10;99.90
59148;DHT22;44930;52.878;6.168;2023-07-29T06:47:05;18.20;99.90
59148;DHT22;44930;52.878;6.168;2023-07-29T06:49:31;17.90;99.90
59148;DHT22;44930;52.878;6.168;2023-07-29T06:51:56;18.00;99.90
59148;DHT22;44930;52.878;6.168;2023-07-29T06:54:25;18.20;99.90
59148;DHT22;44930;52.878;6.168;2023-07-29T06:56:54;18.60;99.90
59148;DHT22;44930;52.878;6.168;2023-07-29T06:59:20;17.70;99.90
59148;DHT22;44930;52.878;6.168;2023-07-29T07:01:46;18.20;99.90
59148;DHT22;44930;52.878;6.168;2023-07-29T07:04:11;18.20;99.90
59148;DHT22;44930;52.878;6.168;2023-07-29T07:06:37;19.00;99.90
59148;DHT22;44930;52.878;6.168;2023-07-29T07:09:02;17.80;99.90
59148;DHT22;44930;52.878;6.168;2023-07-29T07:11:28;18.10;99.90
59148;DHT22;44930;52.878;6.168;2023-07-29T07:13:53;18.40;99.90
59148;DHT22;44930;52.878;6.168;2023-07-29T07:16:19;18.10;99.90
59148;DHT22;44930;52.878;6.168;2023-07-29T07:18:45;18.10;99.90
59148;DHT22;44930;52.878;6.168;2023-07-29T07:21:10;18.10;99.90
59148;DHT22;44930;52.878;6.168;2023-07-29T07:23:36;18.20;99.90
59148;DHT22;44930;52.878;6.168;2023-07-29T07:26:01;18.20;99.90
59148;DHT22;44930;52.878;6.168;2023-07-29T07:28:28;17.90;99.90
59148;DHT22;44930;52.878;6.168;2023-07-29T07:30:53;18.60;99.90
59148;DHT22;44930;52.878;6.168;2023-07-29T07:33:21;18.40;99.90
59148;DHT22;44930;52.878;6.168;2023-07-29T07:35:47;18.60;99.90
59148;DHT22;44930;52.878;6.168;2023-07-29T07:38:12;18.10;99.90
59148;DHT22;44930;52.878;6.168;2023-07-29T07:40:38;18.70;99.90
59148;DHT22;44930;52.878;6.168;2023-07-29T07:43:03;18.70;99.90
59148;DHT22;44930;52.878;6.168;2023-07-29T07:45:29;18.80;99.90
59148;DHT22;44930;52.878;6.168;2023-07-29T07:47:56;18.70;99.90
59148;DHT22;44930;52.878;6.168;2023-07-29T07:50:21;18.70;99.90
59148;DHT22;44930;52.878;6.168;2023-07-29T07:52:49;19.10;99.90
59148;DHT22;44930;52.878;6.168;2023-07-29T07:55:15;18.90;99.90
59148;DHT22;44930;52.878;6.168;2023-07-29T07:57:40;18.70;99.90
59148;DHT22;44930;52.878;6.168;2023-07-29T08:00:06;18.70;99.90
59148;DHT22;44930;52.878;6.168;2023-07-29T08:02:32;18.90;99.90
59148;DHT22;44930;52.878;6.168;2023-07-29T08:04:58;18.80;99.90
59148;DHT22;44930;52.878;6.168;2023-07-29T08:07:23;19.50;99.90
59148;DHT22;44930;52.878;6.168;2023-07-29T08:09:49;19.20;99.90
59148;DHT22;44930;52.878;6.168;2023-07-29T08:12:14;19.30;99.90
59148;DHT22;44930;52.878;6.168;2023-07-29T08:14:40;19.00;99.90
59148;DHT22;44930;52.878;6.168;2023-07-29T08:17:06;19.30;99.90
59148;DHT22;44930;52.878;6.168;2023-07-29T08:19:31;19.50;99.90
59148;DHT22;44930;52.878;6.168;2023-07-29T08:21:57;19.80;99.90
59148;DHT22;44930;52.878;6.168;2023-07-29T08:24:23;19.40;99.90
59148;DHT22;44930;52.878;6.168;2023-07-29T08:26:49;19.40;99.90
59148;DHT22;44930;52.878;6.168;2023-07-29T08:29:14;19.40;99.90
59148;DHT22;44930;52.878;6.168;2023-07-29T08:31:40;19.40;99.90
59148;DHT22;44930;52.878;6.168;2023-07-29T08:34:05;19.00;99.90
59148;DHT22;44930;52.878;6.168;2023-07-29T08:36:31;19.40;99.90
59148;DHT22;44930;52.878;6.168;2023-07-29T08:38:56;19.70;99.90
59148;DHT22;44930;52.878;6.168;2023-07-29T08:41:29;20.20;99.90
59148;DHT22;44930;52.878;6.168;2023-07-29T08:44:06;19.50;99.90
59148;DHT22;44930;52.878;6.168;2023-07-29T08:46:32;20.00;99.90
59148;DHT22;44930;52.878;6.168;2023-07-29T08:48:59;19.70;99.90
59148;DHT22;44930;52.878;6.168;2023-07-29T08:51:27;20.30;99.90
59148;DHT22;44930;52.878;6.168;2023-07-29T08:53:53;20.50;99.90
59148;DHT22;44930;52.878;6.168;2023-07-29T08:56:19;20.20;99.90
59148;DHT22;44930;52.878;6.168;2023-07-29T08:58:45;20.50;99.90
59148;DHT22;44930;52.878;6.168;2023-07-29T09:01:11;21.50;99.90
59148;DHT22;44930;52.878;6.168;2023-07-29T09:06:03;20.20;99.90
59148;DHT22;44930;52.878;6.168;2023-07-29T09:08:29;20.20;99.90
59148;DHT22;44930;52.878;6.168;2023-07-29T09:10:55;20.60;99.90
59148;DHT22;44930;52.878;6.168;2023-07-29T09:13:21;20.80;99.90
59148;DHT22;44930;52.878;6.168;2023-07-29T09:15:47;20.20;99.90
59148;DHT22;44930;52.878;6.168;2023-07-29T09:18:18;20.40;99.90
59148;DHT22;44930;52.878;6.168;2023-07-29T09:20:47;21.00;99.90
59148;DHT22;44930;52.878;6.168;2023-07-29T09:23:13;20.60;99.90
59148;DHT22;44930;52.878;6.168;2023-07-29T09:25:39;20.50;99.90
59148;DHT22;44930;52.878;6.168;2023-07-29T09:28:13;20.70;99.90
59148;DHT22;44930;52.878;6.168;2023-07-29T09:30:40;20.70;99.90
59148;DHT22;44930;52.878;6.168;2023-07-29T09:33:06;20.30;99.90
59148;DHT22;44930;52.878;6.168;2023-07-29T09:35:36;20.80;99.90
59148;DHT22;44930;52.878;6.168;2023-07-29T09:38:03;20.70;99.90
59148;DHT22;44930;52.878;6.168;2023-07-29T09:40:39;20.90;99.90
59148;DHT22;44930;52.878;6.168;2023-07-29T09:43:06;20.80;99.90
59148;DHT22;44930;52.878;6.168;2023-07-29T09:45:34;20.70;99.90
59148;DHT22;44930;52.878;6.168;2023-07-29T09:48:00;20.90;99.90
59148;DHT22;44930;52.878;6.168;2023-07-29T09:50:27;20.60;99.90
59148;DHT22;44930;52.878;6.168;2023-07-29T09:52:54;20.90;99.90
59148;DHT22;44930;52.878;6.168;2023-07-29T09:55:24;20.50;99.90
59148;DHT22;44930;52.878;6.168;2023-07-29T09:58:01;21.10;99.90
59148;DHT22;44930;52.878;6.168;2023-07-29T10:00:30;20.50;99.90
59148;DHT22;44930;52.878;6.168;2023-07-29T10:02:58;20.40;99.90
59148;DHT22;44930;52.878;6.168;2023-07-29T10:05:26;20.50;99.90
59148;DHT22;44930;52.878;6.168;2023-07-29T10:07:52;21.00;99.90
59148;DHT22;44930;52.878;6.168;2023-07-29T10:10:17;20.60;99.90
59148;DHT22;44930;52.878;6.168;2023-07-29T10:12:43;20.50;99.90
59148;DHT22;44930;52.878;6.168;2023-07-29T10:15:09;20.40;99.90
59148;DHT22;44930;52.878;6.168;2023-07-29T10:17:37;20.40;99.90
59148;DHT22;44930;52.878;6.168;2023-07-29T10:20:10;20.10;99.90
59148;DHT22;44930;52.878;6.168;2023-07-29T10:22:39;20.30;99.90
59148;DHT22;44930;52.878;6.168;2023-07-29T10:25:12;20.10;99.90
59148;DHT22;44930;52.878;6.168;2023-07-29T10:27:47;20.20;99.90
59148;DHT22;44930;52.878;6.168;2023-07-29T10:30:13;19.90;99.90
59148;DHT22;44930;52.878;6.168;2023-07-29T10:32:43;20.20;99.90
59148;DHT22;44930;52.878;6.168;2023-07-29T10:35:10;19.90;99.90
59148;DHT22;44930;52.878;6.168;2023-07-29T10:37:36;20.10;99.90
59148;DHT22;44930;52.878;6.168;2023-07-29T10:40:06;20.10;99.90
59148;DHT22;44930;52.878;6.168;2023-07-29T10:42:32;20.30;99.90
59148;DHT22;44930;52.878;6.168;2023-07-29T10:44:57;20.10;99.90
59148;DHT22;44930;52.878;6.168;2023-07-29T10:47:24;19.80;99.90
59148;DHT22;44930;52.878;6.168;2023-07-29T10:49:52;20.10;99.90
59148;DHT22;44930;52.878;6.168;2023-07-29T10:52:40;20.10;99.90
59148;DHT22;44930;52.878;6.168;2023-07-29T10:55:33;20.40;99.90
59148;DHT22;44930;52.878;6.168;2023-07-29T10:58:08;20.30;99.90
59148;DHT22;44930;52.878;6.168;2023-07-29T11:00:34;20.20;99.90
59148;DHT22;44930;52.878;6.168;2023-07-29T11:03:11;20.80;99.90
59148;DHT22;44930;52.878;6.168;2023-07-29T11:05:50;20.80;99.90
59148;DHT22;44930;52.878;6.168;2023-07-29T11:08:36;20.90;99.90
59148;DHT22;44930;52.878;6.168;2023-07-29T11:11:09;20.50;99.90
59148;DHT22;44930;52.878;6.168;2023-07-29T11:13:37;21.20;99.90
59148;DHT22;44930;52.878;6.168;2023-07-29T11:16:04;20.70;99.90
59148;DHT22;44930;52.878;6.168;2023-07-29T11:18:32;20.70;99.90
59148;DHT22;44930;52.878;6.168;2023-07-29T11:20:59;21.10;99.90
59148;DHT22;44930;52.878;6.168;2023-07-29T11:25:55;20.70;99.90
59148;DHT22;44930;52.878;6.168;2023-07-29T11:28:21;21.20;99.90
59148;DHT22;44930;52.878;6.168;2023-07-29T11:30:47;21.00;99.90
59148;DHT22;44930;52.878;6.168;2023-07-29T11:33:13;20.80;99.90
59148;DHT22;44930;52.878;6.168;2023-07-29T11:35:39;20.60;99.90
59148;DHT22;44930;52.878;6.168;2023-07-29T11:38:04;20.50;99.90
59148;DHT22;44930;52.878;6.168;2023-07-29T11:40:30;20.30;99.90
59148;DHT22;44930;52.878;6.168;2023-07-29T11:42:55;20.20;99.90
59148;DHT22;44930;52.878;6.168;2023-07-29T11:45:22;21.00;99.90
59148;DHT22;44930;52.878;6.168;2023-07-29T11:47:48;21.20;99.90
59148;DHT22;44930;52.878;6.168;2023-07-29T11:50:14;21.20;99.90
59148;DHT22;44930;52.878;6.168;2023-07-29T11:52:42;20.80;99.90
59148;DHT22;44930;52.878;6.168;2023-07-29T11:55:08;21.30;99.90
59148;DHT22;44930;52.878;6.168;2023-07-29T11:57:36;21.20;99.90
59148;DHT22;44930;52.878;6.168;2023-07-29T12:00:06;21.30;99.90
59148;DHT22;44930;52.878;6.168;2023-07-29T12:02:34;21.20;99.90
59148;DHT22;44930;52.878;6.168;2023-07-29T12:05:00;21.40;99.90
59148;DHT22;44930;52.878;6.168;2023-07-29T12:07:27;21.00;99.90
59148;DHT22;44930;52.878;6.168;2023-07-29T12:09:53;21.40;99.90
59148;DHT22;44930;52.878;6.168;2023-07-29T12:12:18;21.70;99.90
59148;DHT22;44930;52.878;6.168;2023-07-29T12:14:45;21.30;99.90
59148;DHT22;44930;52.878;6.168;2023-07-29T12:17:12;21.20;99.90
59148;DHT22;44930;52.878;6.168;2023-07-29T12:19:39;21.10;99.90
59148;DHT22;44930;52.878;6.168;2023-07-29T12:22:08;21.60;99.90
59148;DHT22;44930;52.878;6.168;2023-07-29T12:24:36;21.40;99.90
59148;DHT22;44930;52.878;6.168;2023-07-29T12:27:01;22.20;99.90
59148;DHT22;44930;52.878;6.168;2023-07-29T12:29:28;22.00;99.90
59148;DHT22;44930;52.878;6.168;2023-07-29T12:32:03;21.90;99.90
59148;DHT22;44930;52.878;6.168;2023-07-29T12:34:30;21.60;99.90
59148;DHT22;44930;52.878;6.168;2023-07-29T12:36:57;21.70;99.90
59148;DHT22;44930;52.878;6.168;2023-07-29T12:39:28;21.50;99.90
59148;DHT22;44930;52.878;6.168;2023-07-29T12:41:55;21.60;99.90
59148;DHT22;44930;52.878;6.168;2023-07-29T12:44:23;21.50;99.90
59148;DHT22;44930;52.878;6.168;2023-07-29T12:46:49;21.70;99.90
59148;DHT22;44930;52.878;6.168;2023-07-29T12:49:14;21.80;99.90
59148;DHT22;44930;52.878;6.168;2023-07-29T12:51:41;22.00;99.90
59148;DHT22;44930;52.878;6.168;2023-07-29T12:54:06;22.10;99.90
59148;DHT22;44930;52.878;6.168;2023-07-29T12:56:33;23.60;99.90
59148;DHT22;44930;52.878;6.168;2023-07-29T12:58:59;23.10;99.90
59148;DHT22;44930;52.878;6.168;2023-07-29T13:01:25;23.00;99.90
59148;DHT22;44930;52.878;6.168;2023-07-29T13:03:51;23.10;99.90
59148;DHT22;44930;52.878;6.168;2023-07-29T13:06:17;22.80;99.90
59148;DHT22;44930;52.878;6.168;2023-07-29T13:08:44;23.00;99.90
59148;DHT22;44930;52.878;6.168;2023-07-29T13:11:09;23.10;99.90
59148;DHT22;44930;52.878;6.168;2023-07-29T13:13:35;23.30;99.90
59148;DHT22;44930;52.878;6.168;2023-07-29T13:16:01;23.50;99.90
59148;DHT22;44930;52.878;6.168;2023-07-29T13:18:27;24.20;99.90
59148;DHT22;44930;52.878;6.168;2023-07-29T13:20:52;23.20;99.90
59148;DHT22;44930;52.878;6.168;2023-07-29T13:23:18;23.10;99.90
59148;DHT22;44930;52.878;6.168;2023-07-29T13:25:44;24.80;99.90
59148;DHT22;44930;52.878;6.168;2023-07-29T13:28:10;23.20;99.90
59148;DHT22;44930;52.878;6.168;2023-07-29T13:30:36;22.90;99.90
59148;DHT22;44930;52.878;6.168;2023-07-29T13:33:02;23.10;99.90
59148;DHT22;44930;52.878;6.168;2023-07-29T13:35:28;23.30;99.90
59148;DHT22;44930;52.878;6.168;2023-07-29T13:37:53;23.60;99.90
59148;DHT22;44930;52.878;6.168;2023-07-29T13:40:19;24.40;99.90
59148;DHT22;44930;52.878;6.168;2023-07-29T13:42:44;23.80;99.90
59148;DHT22;44930;52.878;6.168;2023-07-29T13:45:10;23.80;99.90
59148;DHT22;44930;52.878;6.168;2023-07-29T13:47:36;24.10;99.90
59148;DHT22;44930;52.878;6.168;2023-07-29T13:50:02;23.90;99.90
59148;DHT22;44930;52.878;6.168;2023-07-29T13:52:28;24.50;99.90
59148;DHT22;44930;52.878;6.168;2023-07-29T13:54:53;24.20;99.90
59148;DHT22;44930;52.878;6.168;2023-07-29T13:57:19;24.30;99.90
59148;DHT22;44930;52.878;6.168;2023-07-29T13:59:44;25.40;99.90
59148;DHT22;44930;52.878;6.168;2023-07-29T14:02:11;24.20;99.90
59148;DHT22;44930;52.878;6.168;2023-07-29T14:04:37;24.40;99.90
59148;DHT22;44930;52.878;6.168;2023-07-29T14:07:02;24.30;99.90
59148;DHT22;44930;52.878;6.168;2023-07-29T14:09:28;24.00;99.90
59148;DHT22;44930;52.878;6.168;2023-07-29T14:11:54;23.70;99.90
59148;DHT22;44930;52.878;6.168;2023-07-29T14:14:20;23.40;99.90
59148;DHT22;44930;52.878;6.168;2023-07-29T14:16:46;23.20;99.90
59148;DHT22;44930;52.878;6.168;2023-07-29T14:19:12;23.50;99.90
59148;DHT22;44930;52.878;6.168;2023-07-29T14:21:38;22.70;99.90
59148;DHT22;44930;52.878;6.168;2023-07-29T14:24:03;22.80;99.90
59148;DHT22;44930;52.878;6.168;2023-07-29T14:26:29;22.80;99.90
59148;DHT22;44930;52.878;6.168;2023-07-29T14:28:54;22.90;99.90
59148;DHT22;44930;52.878;6.168;2023-07-29T14:31:20;22.90;99.90
59148;DHT22;44930;52.878;6.168;2023-07-29T14:33:45;23.10;99.90
59148;DHT22;44930;52.878;6.168;2023-07-29T14:36:11;23.30;99.90
59148;DHT22;44930;52.878;6.168;2023-07-29T14:38:37;23.20;99.90
59148;DHT22;44930;52.878;6.168;2023-07-29T14:41:03;24.60;99.90
59148;DHT22;44930;52.878;6.168;2023-07-29T14:43:30;23.10;99.90
59148;DHT22;44930;52.878;6.168;2023-07-29T14:45:55;23.30;99.90
59148;DHT22;44930;52.878;6.168;2023-07-29T14:48:21;23.20;99.90
59148;DHT22;44930;52.878;6.168;2023-07-29T14:50:47;23.40;99.90
59148;DHT22;44930;52.878;6.168;2023-07-29T14:53:13;24.00;99.90
59148;DHT22;44930;52.878;6.168;2023-07-29T14:55:38;24.00;99.90
59148;DHT22;44930;52.878;6.168;2023-07-29T14:58:04;24.60;99.90
59148;DHT22;44930;52.878;6.168;2023-07-29T15:00:29;24.30;99.90
59148;DHT22;44930;52.878;6.168;2023-07-29T15:02:55;24.00;99.90
59148;DHT22;44930;52.878;6.168;2023-07-29T15:05:20;25.20;99.90
59148;DHT22;44930;52.878;6.168;2023-07-29T15:07:47;24.30;99.90
59148;DHT22;44930;52.878;6.168;2023-07-29T15:10:15;24.70;99.90
59148;DHT22;44930;52.878;6.168;2023-07-29T15:12:41;24.20;99.90
59148;DHT22;44930;52.878;6.168;2023-07-29T15:15:08;25.30;99.90
59148;DHT22;44930;52.878;6.168;2023-07-29T15:17:33;24.70;99.90
59148;DHT22;44930;52.878;6.168;2023-07-29T15:19:59;25.10;99.90
59148;DHT22;44930;52.878;6.168;2023-07-29T15:22:24;24.90;99.90
59148;DHT22;44930;52.878;6.168;2023-07-29T15:24:50;25.00;99.90
59148;DHT22;44930;52.878;6.168;2023-07-29T15:27:16;26.60;99.90
59148;DHT22;44930;52.878;6.168;2023-07-29T15:29:41;25.10;99.90
59148;DHT22;44930;52.878;6.168;2023-07-29T15:32:07;24.90;99.90
59148;DHT22;44930;52.878;6.168;2023-07-29T15:34:33;24.30;99.90
59148;DHT22;44930;52.878;6.168;2023-07-29T15:36:59;24.40;99.90
59148;DHT22;44930;52.878;6.168;2023-07-29T15:39:25;24.80;99.90